Time;durP1;ratioP1;P1;durP2;ratioP2;P2;SDS_P1;SDS_P2;PMS_P1;PMS_P2;Temp;Humidity;BMP_temperature;BMP_pressure;BME280_temperature;BME280_humidity;BME280_pressure;Samples;Min_cycle;Max_cycle;Signal;HPM_P1;HPM_P2
2022/03/17 00:08:32;;;;;;;26.25;15.60;;;11.10;99.90;;;;;;6697907;88;20194;-75
2022/03/17 00:18:32;;;;;;;26.05;15.57;;;11.00;99.90;;;;;;6697926;88;20193;-75
2022/03/17 00:28:33;;;;;;;26.25;15.25;;;11.00;99.90;;;;;;6694311;88;20244;-74
2022/03/17 00:38:33;;;;;;;26.60;16.42;;;11.00;99.90;;;;;;6703297;88;20697;-76
2022/03/17 00:48:34;;;;;;;25.58;15.13;;;10.90;99.90;;;;;;6702576;88;20231;-75
2022/03/17 00:58:34;;;;;;;28.15;16.00;;;10.90;99.90;;;;;;6697270;88;20227;-75
2022/03/17 01:08:35;;;;;;;24.98;14.82;;;10.90;99.90;;;;;;6696734;88;20366;-75
2022/03/17 01:18:36;;;;;;;26.40;16.15;;;10.90;99.90;;;;;;6696834;88;20205;-75
2022/03/17 01:28:36;;;;;;;24.98;14.93;;;10.80;99.90;;;;;;6697131;88;20964;-76
2022/03/17 01:38:37;;;;;;;27.00;16.02;;;10.90;99.90;;;;;;6700208;88;20629;-75
2022/03/17 01:48:38;;;;;;;29.02;16.30;;;10.90;99.90;;;;;;6699206;88;20719;-75
2022/03/17 01:58:40;;;;;;;25.37;16.02;;;10.90;99.90;;;;;;6699207;88;20194;-75
2022/03/17 02:08:40;;;;;;;23.58;14.30;;;10.80;99.90;;;;;;6699422;88;20371;-74
2022/03/17 02:18:46;;;;;;;27.87;15.77;;;10.80;99.90;;;;;;6698869;88;20224;-75
2022/03/17 02:28:46;;;;;;;31.52;17.08;;;10.90;99.90;;;;;;6701994;88;20219;-75
2022/03/17 02:38:47;;;;;;;28.17;16.90;;;10.90;99.90;;;;;;6697062;88;20998;-75
2022/03/17 02:48:48;;;;;;;31.33;16.52;;;10.90;99.90;;;;;;6698379;88;20721;-74
2022/03/17 02:58:48;;;;;;;30.12;17.70;;;10.90;99.90;;;;;;6698545;88;20243;-74
2022/03/17 03:08:49;;;;;;;29.85;17.73;;;10.90;99.90;;;;;;6699318;88;20247;-75
2022/03/17 03:18:49;;;;;;;30.65;17.77;;;10.90;99.90;;;;;;6690595;88;20212;-75
2022/03/17 03:28:50;;;;;;;31.45;16.85;;;10.90;99.90;;;;;;6691983;88;20662;-75
2022/03/17 03:38:50;;;;;;;32.95;18.70;;;11.00;99.90;;;;;;6699067;88;20232;-74
2022/03/17 03:48:51;;;;;;;32.42;18.33;;;10.90;99.90;;;;;;6711852;88;20215;-76
2022/03/17 03:58:52;;;;;;;33.72;20.65;;;10.90;99.90;;;;;;6713358;88;20198;-76
2022/03/17 04:08:52;;;;;;;32.03;19.33;;;10.80;99.90;;;;;;6698637;88;20186;-75
2022/03/17 04:18:53;;;;;;;33.38;20.58;;;10.70;99.90;;;;;;6698271;88;20243;-75
2022/03/17 04:28:54;;;;;;;35.67;21.17;;;10.50;99.90;;;;;;6680601;88;20195;-75
2022/03/17 04:38:54;;;;;;;37.42;21.73;;;10.30;99.90;;;;;;6680280;88;20674;-74
2022/03/17 04:48:55;;;;;;;39.03;22.20;;;10.30;99.90;;;;;;6680035;88;20329;-74
2022/03/17 04:58:55;;;;;;;42.00;22.37;;;10.20;99.90;;;;;;6679373;88;20489;-75
2022/03/17 05:08:56;;;;;;;38.20;22.13;;;10.30;99.90;;;;;;6683377;88;20257;-76
2022/03/17 05:18:57;;;;;;;37.28;22.48;;;10.30;99.90;;;;;;6682285;88;20244;-76
2022/03/17 05:28:57;;;;;;;39.30;22.17;;;10.20;99.90;;;;;;6682833;88;20175;-74
2022/03/17 05:49:01;;;;;;;45.83;25.12;;;9.70;99.90;;;;;;6736587;88;20232;-80
2022/03/17 05:59:02;;;;;;;49.70;25.92;;;9.60;99.90;;;;;;6730886;88;20666;-81
2022/03/17 06:09:03;;;;;;;48.95;25.92;;;9.40;99.90;;;;;;6737179;88;20328;-82
2022/03/17 06:19:04;;;;;;;52.62;27.33;;;9.50;99.90;;;;;;6744546;88;20207;-81
2022/03/17 06:29:04;;;;;;;34.50;17.80;;;9.40;99.90;;;;;;6747937;88;20204;-81
2022/03/17 06:39:05;;;;;;;27.58;14.38;;;9.70;99.90;;;;;;6749857;88;20209;-81
2022/03/17 06:49:05;;;;;;;26.83;13.65;;;9.80;99.90;;;;;;6748977;88;20192;-81
2022/03/17 06:59:06;;;;;;;33.15;17.08;;;9.80;99.90;;;;;;6746425;88;20637;-82
2022/03/17 07:09:07;;;;;;;42.50;21.40;;;9.70;99.90;;;;;;6749836;88;20225;-81
2022/03/17 07:19:07;;;;;;;48.42;25.08;;;9.40;99.90;;;;;;6746914;88;20273;-79
2022/03/17 07:29:08;;;;;;;55.67;24.08;;;9.10;99.90;;;;;;6747187;88;20738;-80
2022/03/17 07:39:09;;;;;;;64.95;26.87;;;9.00;99.90;;;;;;6691643;88;20170;-76
2022/03/17 07:49:09;;;;;;;50.50;22.23;;;9.00;99.90;;;;;;6735023;88;20673;-79
2022/03/17 07:59:10;;;;;;;32.60;16.30;;;8.60;99.90;;;;;;6728814;88;20285;-77
2022/03/17 08:09:10;;;;;;;31.75;16.08;;;8.50;99.90;;;;;;6736875;88;20284;-79
2022/03/17 08:29:15;;;;;;;17.95;9.50;;;8.40;99.90;;;;;;6767942;88;20240;-82
2022/03/17 09:00:41;;;;;;;12.15;5.18;;;8.50;99.90;;;;;;6755605;77;20719;-84
2022/03/17 09:10:42;;;;;;;9.27;4.20;;;8.80;99.90;;;;;;6749691;88;20186;-81
2022/03/17 09:20:42;;;;;;;10.55;4.47;;;8.90;99.90;;;;;;6749183;88;20249;-82
2022/03/17 09:30:43;;;;;;;9.25;4.05;;;8.90;99.90;;;;;;6712266;88;20174;-79
2022/03/17 09:40:45;;;;;;;10.70;5.37;;;9.00;99.90;;;;;;6711275;88;20266;-83
2022/03/17 09:50:47;;;;;;;10.82;5.75;;;8.90;99.90;;;;;;6711811;88;20253;-85
2022/03/17 10:00:48;;;;;;;11.27;6.57;;;8.90;99.90;;;;;;6713434;88;20201;-81
2022/03/17 10:10:49;;;;;;;11.48;6.40;;;9.10;99.90;;;;;;6705273;88;20234;-80
2022/03/17 10:21:16;;;;;;;10.70;6.85;;;9.10;99.90;;;;;;6701796;88;20226;-80
2022/03/17 10:31:17;;;;;;;11.52;7.22;;;9.10;99.90;;;;;;6717314;88;20661;-80
2022/03/17 10:41:17;;;;;;;14.00;8.48;;;9.20;99.90;;;;;;6716479;88;20324;-80
2022/03/17 10:51:31;;;;;;;12.65;8.55;;;9.50;99.90;;;;;;6714390;88;20178;-77
2022/03/17 11:01:39;;;;;;;16.62;9.25;;;9.40;99.90;;;;;;6719190;88;20212;-80
2022/03/17 11:11:40;;;;;;;20.55;11.45;;;9.20;99.90;;;;;;6731710;88;20162;-81
2022/03/17 11:21:49;;;;;;;19.42;10.30;;;9.20;99.90;;;;;;6728135;88;20273;-80
2022/03/17 11:31:56;;;;;;;11.20;6.32;;;9.10;99.90;;;;;;6729354;88;20274;-79
2022/03/17 11:41:56;;;;;;;8.18;4.97;;;9.00;99.90;;;;;;6727012;77;20400;-72
2022/03/17 11:52:09;;;;;;;11.32;6.00;;;9.40;99.90;;;;;;6694998;88;20645;-73
2022/03/17 12:02:12;;;;;;;6.12;3.65;;;9.50;99.90;;;;;;6705041;88;20181;-74
2022/03/17 12:12:24;;;;;;;5.95;2.45;;;9.60;99.90;;;;;;6701842;88;20219;-74
2022/03/17 12:22:39;;;;;;;3.80;1.50;;;9.80;99.90;;;;;;6703375;88;20201;-74
2022/03/17 12:32:54;;;;;;;5.82;1.58;;;10.40;99.90;;;;;;6705724;88;20961;-73
2022/03/17 12:42:55;;;;;;;7.87;2.00;;;10.80;99.90;;;;;;6704016;88;20294;-75
2022/03/17 12:52:55;;;;;;;7.45;2.30;;;10.70;99.90;;;;;;6701441;88;20200;-75
2022/03/17 13:02:57;;;;;;;7.73;3.40;;;10.60;99.90;;;;;;6703398;88;20245;-74
2022/03/17 13:23:17;;;;;;;12.93;4.05;;;10.50;99.90;;;;;;6698915;88;20212;-74
2022/03/17 13:33:26;;;;;;;9.40;3.37;;;10.40;99.90;;;;;;6701305;88;21086;-75
2022/03/17 13:43:30;;;;;;;8.00;2.80;;;10.40;99.90;;;;;;6702418;88;20968;-75
2022/03/17 13:53:36;;;;;;;7.70;2.37;;;10.60;99.90;;;;;;6698127;88;20278;-75
2022/03/17 14:03:38;;;;;;;;;;;10.80;99.90;;;;;;6704565;88;20186;-75
2022/03/17 14:13:43;;;;;;;7.47;2.83;;;10.60;99.90;;;;;;6708291;88;20099;-75
2022/03/17 14:34:05;;;;;;;9.07;3.83;;;10.80;99.90;;;;;;6706212;88;20182;-77
2022/03/17 14:44:07;;;;;;;11.63;4.07;;;10.90;99.90;;;;;;6705043;88;20337;-77
2022/03/17 14:54:08;;;;;;;7.07;3.50;;;10.80;99.90;;;;;;6711987;88;20234;-78
2022/03/17 15:04:09;;;;;;;10.85;3.60;;;10.80;99.90;;;;;;6711728;88;20214;-77
2022/03/17 15:14:09;;;;;;;9.10;4.43;;;10.70;99.90;;;;;;6708839;88;20203;-77
2022/03/17 15:24:10;;;;;;;15.30;5.32;;;10.80;99.90;;;;;;6708869;88;20174;-76
2022/03/17 15:34:11;;;;;;;13.35;5.07;;;10.70;99.90;;;;;;6703631;88;20234;-76
2022/03/17 15:44:12;;;;;;;11.35;4.85;;;10.60;99.90;;;;;;6700758;88;20318;-76
2022/03/17 15:54:13;;;;;;;14.45;5.07;;;10.40;99.90;;;;;;6702310;88;20654;-76
2022/03/17 16:04:15;;;;;;;12.18;4.62;;;10.20;99.90;;;;;;6701410;88;20210;-75
2022/03/17 16:14:35;;;;;;;10.20;5.05;;;10.10;99.90;;;;;;6707401;88;20198;-77
2022/03/17 16:24:35;;;;;;;11.63;3.78;;;10.10;99.90;;;;;;6704749;88;20182;-75
2022/03/17 16:34:36;;;;;;;9.05;3.03;;;9.90;99.90;;;;;;6703903;88;20306;-77
2022/03/17 16:44:37;;;;;;;8.23;2.85;;;9.80;99.90;;;;;;6703335;88;20317;-77
2022/03/17 16:54:38;;;;;;;6.22;2.50;;;9.70;99.90;;;;;;6704632;88;20194;-76
2022/03/17 17:04:39;;;;;;;6.43;2.37;;;9.50;99.90;;;;;;6709835;88;20218;-76
2022/03/17 17:14:39;;;;;;;10.80;3.40;;;9.30;99.90;;;;;;6707282;88;20222;-76
2022/03/17 17:34:59;;;;;;;16.10;4.78;;;8.90;99.90;;;;;;6702465;88;20616;-76
2022/03/17 17:45:00;;;;;;;12.57;5.12;;;8.80;99.90;;;;;;6714824;88;20319;-76
2022/03/17 17:55:01;;;;;;;21.70;6.40;;;8.60;99.90;;;;;;6702619;88;21040;-75
2022/03/17 18:05:03;;;;;;;15.98;5.85;;;8.50;99.90;;;;;;6702290;88;20226;-75
2022/03/17 18:15:05;;;;;;;11.02;5.65;;;8.40;99.90;;;;;;6703322;88;20204;-75
2022/03/17 18:25:06;;;;;;;18.00;6.12;;;8.10;99.90;;;;;;6706427;88;20202;-77
2022/03/17 18:35:07;;;;;;;12.65;5.40;;;8.00;99.90;;;;;;6705395;88;20175;-77
2022/03/17 18:45:08;;;;;;;13.52;4.70;;;7.90;99.90;;;;;;6699983;88;20279;-76
2022/03/17 18:55:10;;;;;;;8.55;3.75;;;7.60;99.90;;;;;;6707706;88;20222;-77
2022/03/17 19:05:11;;;;;;;9.10;4.18;;;7.50;99.90;;;;;;6702816;88;21054;-76
2022/03/17 19:15:12;;;;;;;10.50;4.20;;;7.30;99.90;;;;;;6709611;88;20265;-75
2022/03/17 19:25:12;;;;;;;8.30;4.30;;;7.10;99.90;;;;;;6702671;88;20317;-77
2022/03/17 19:35:13;;;;;;;14.15;4.80;;;7.10;99.90;;;;;;6702463;88;20632;-76
2022/03/17 19:45:14;;;;;;;11.00;4.87;;;7.10;99.90;;;;;;6688559;88;20243;-76
2022/03/17 19:55:15;;;;;;;8.35;4.30;;;7.00;99.90;;;;;;6688034;88;20216;-77
2022/03/17 20:05:15;;;;;;;15.27;6.12;;;6.80;99.90;;;;;;6687483;88;20239;-77
2022/03/17 20:15:16;;;;;;;13.23;5.20;;;6.70;99.90;;;;;;6686784;88;20215;-76
2022/03/17 20:25:17;;;;;;;14.23;5.30;;;6.80;99.90;;;;;;6681053;88;20635;-76
2022/03/17 20:35:18;;;;;;;11.37;5.90;;;6.60;99.90;;;;;;6679675;88;20331;-76
2022/03/17 20:55:40;;;;;;;14.70;5.80;;;6.30;99.90;;;;;;6743762;77;20642;-78
2022/03/17 21:05:42;;;;;;;14.27;5.85;;;6.30;99.90;;;;;;6752891;88;20199;-80
2022/03/17 21:15:43;;;;;;;14.32;5.53;;;6.20;99.90;;;;;;6755939;88;20196;-77
2022/03/17 21:25:45;;;;;;;13.18;5.55;;;6.20;99.90;;;;;;6755688;88;20202;-80
2022/03/17 21:35:46;;;;;;;14.02;5.75;;;6.10;99.90;;;;;;6756082;88;20190;-79
2022/03/17 21:45:47;;;;;;;13.38;6.80;;;5.90;99.90;;;;;;6755985;88;20638;-79
2022/03/17 21:55:50;;;;;;;15.13;7.32;;;6.10;99.90;;;;;;6759018;88;20313;-80
2022/03/17 22:05:51;;;;;;;17.45;7.65;;;5.70;99.90;;;;;;6759275;88;20283;-79
2022/03/17 22:15:51;;;;;;;13.73;7.15;;;6.00;99.90;;;;;;6761569;88;20654;-77
2022/03/17 22:25:52;;;;;;;17.37;7.07;;;5.60;99.90;;;;;;6758261;88;20175;-80
2022/03/17 22:35:53;;;;;;;15.35;6.75;;;5.60;99.90;;;;;;6761881;88;20221;-80
2022/03/17 22:45:53;;;;;;;18.00;7.03;;;5.30;99.90;;;;;;6761137;88;20187;-79
2022/03/17 22:55:54;;;;;;;14.38;6.80;;;5.20;99.90;;;;;;6761046;88;20605;-79
2022/03/17 23:05:55;;;;;;;13.07;7.00;;;5.30;99.90;;;;;;6739009;88;20201;-79
2022/03/17 23:15:55;;;;;;;12.93;7.00;;;5.10;99.90;;;;;;6746419;88;20785;-79
2022/03/17 23:25:56;;;;;;;14.27;6.90;;;4.80;99.90;;;;;;6748755;88;20707;-80
2022/03/17 23:35:58;;;;;;;16.08;7.37;;;4.70;99.90;;;;;;6747812;88;20509;-79
2022/03/17 23:45:59;;;;;;;14.80;7.18;;;4.60;99.90;;;;;;6746160;88;20208;-80
2022/03/17 23:56:00;;;;;;;14.13;7.60;;;4.50;99.90;;;;;;6749563;88;20302;-80
